createdAt,value
2023-02-05T02:26:42.942Z,2.53
2023-02-05T02:28:25.299Z,2.70
2023-02-05T02:30:14.995Z,2.70
2023-02-05T02:31:52.156Z,2.60
2023-02-05T02:33:34.907Z,2.83
2023-02-05T02:35:41.994Z,3.42
2023-02-05T02:37:37.191Z,2.80
2023-02-05T02:39:09.080Z,2.58
2023-02-05T02:40:45.254Z,2.50
2023-02-05T02:42:23.784Z,2.70
2023-02-05T02:44:00.205Z,2.90
2023-02-05T02:45:35.064Z,2.85
2023-02-05T02:47:38.844Z,2.58
2023-02-05T02:49:16.188Z,2.95
2023-02-05T02:50:50.185Z,2.85
2023-02-05T02:52:24.804Z,2.78
2023-02-05T02:53:58.770Z,2.67
2023-02-05T02:55:34.902Z,2.63
2023-02-05T02:57:09.166Z,2.83
2023-02-05T02:58:49.965Z,2.40
2023-02-05T03:00:26.672Z,2.42
2023-02-05T03:02:01.139Z,2.15
2023-02-05T03:03:37.469Z,2.78
2023-02-05T03:05:12.427Z,2.50
2023-02-05T03:06:47.824Z,3.22
2023-02-05T03:08:33.318Z,2.40
2023-02-05T03:10:15.828Z,2.47
2023-02-05T03:11:48.237Z,2.70
2023-02-05T03:13:20.447Z,2.55
2023-02-05T03:14:53.248Z,2.70
2023-02-05T03:16:27.496Z,2.22
2023-02-05T03:17:59.676Z,3.05
2023-02-05T03:19:31.914Z,2.65
2023-02-05T03:21:08.420Z,3.30
2023-02-05T03:22:40.526Z,3.53
2023-02-05T03:24:13.419Z,2.50
2023-02-05T03:25:45.571Z,2.80
2023-02-05T03:27:17.672Z,2.70
2023-02-05T03:28:49.727Z,2.85
2023-02-05T03:32:34.376Z,2.95
2023-02-05T03:34:31.342Z,3.08
2023-02-05T03:36:22.012Z,2.95
2023-02-05T03:38:33.950Z,2.60
2023-02-05T03:40:11.657Z,3.00
2023-02-05T03:41:56.635Z,2.55
2023-02-05T03:43:49.463Z,2.40
2023-02-05T03:45:32.599Z,2.75
2023-02-05T03:47:16.667Z,2.30
2023-02-05T03:49:20.156Z,2.33
2023-02-05T03:51:07.121Z,2.80
2023-02-05T03:52:45.328Z,3.03
2023-02-05T03:54:37.551Z,3.10
2023-02-05T03:56:17.068Z,2.72
2023-02-05T03:58:09.538Z,3.63
2023-02-05T03:59:41.568Z,3.15
2023-02-05T04:01:13.883Z,3.08
2023-02-05T04:02:46.067Z,3.75
2023-02-05T04:04:18.412Z,8.20
2023-02-05T04:05:50.450Z,5.93
2023-02-05T04:07:22.595Z,5.30
2023-02-05T04:08:54.729Z,5.50
2023-02-05T04:10:26.718Z,6.15
2023-02-05T04:11:58.753Z,3.15
2023-02-05T04:13:30.956Z,4.03
2023-02-05T04:15:03.572Z,5.57
2023-02-05T04:16:35.691Z,6.63
2023-02-05T04:18:08.737Z,7.82
2023-02-05T04:19:43.327Z,5.82
2023-02-05T04:21:15.399Z,3.33
2023-02-05T04:22:47.450Z,3.50
2023-02-05T04:24:19.551Z,3.72
2023-02-05T04:25:55.453Z,3.90
2023-02-05T04:27:27.491Z,3.90
2023-02-05T04:28:59.534Z,3.75
2023-02-05T04:30:32.249Z,3.65
2023-02-05T04:32:04.458Z,3.40
2023-02-05T04:35:14.897Z,2.97
2023-02-05T04:36:47.113Z,3.60
2023-02-05T04:38:19.154Z,2.85
2023-02-05T04:39:51.782Z,3.28
2023-02-05T04:41:23.821Z,3.30
2023-02-05T04:42:56.030Z,3.45
2023-02-05T04:44:28.767Z,3.45
2023-02-05T04:46:08.287Z,3.30
2023-02-05T04:47:40.568Z,3.45
2023-02-05T04:49:12.792Z,3.78
2023-02-05T04:50:44.877Z,3.78
2023-02-05T04:52:16.927Z,3.75
2023-02-05T04:53:49.053Z,4.25
2023-02-05T04:55:21.192Z,4.35
2023-02-05T04:56:53.187Z,4.75
2023-02-05T04:58:25.209Z,4.25
2023-02-05T04:59:57.441Z,4.68
2023-02-05T05:01:29.557Z,4.93
2023-02-05T05:03:01.780Z,4.40
2023-02-05T05:04:33.847Z,4.65
2023-02-05T05:06:06.701Z,4.40
2023-02-05T05:07:39.157Z,4.38
2023-02-05T05:09:11.267Z,4.75
2023-02-05T05:10:43.385Z,4.50
2023-02-05T05:12:15.603Z,4.30
2023-02-05T05:13:49.586Z,4.13
2023-02-05T05:15:21.745Z,4.57
2023-02-05T05:16:53.904Z,4.25
2023-02-05T05:18:26.135Z,4.22
2023-02-05T05:19:58.202Z,4.65
2023-02-05T05:21:30.376Z,4.50
2023-02-05T05:23:02.402Z,4.80
2023-02-05T05:24:34.614Z,4.53
2023-02-05T05:26:12.101Z,4.72
2023-02-05T05:27:44.393Z,4.25
2023-02-05T05:29:16.530Z,4.57
2023-02-05T05:30:48.963Z,4.25
2023-02-05T05:32:21.203Z,4.47
2023-02-05T05:33:53.565Z,4.20
2023-02-05T05:35:25.810Z,4.65
2023-02-05T05:36:58.035Z,4.68
